Humidity-temperature Sensor

Selected Measurement Type: Relative Humidity

 
Relative Humidity [%]     6 entries per hour
Showing data from 9/8/2020 (00:00:00 Z) to 9/1/2020 (00:01:00 Z)
Previous Next [ Day | 3-Days | 7-Days ]
First Last
Prev [ Day | 3-Days | 7-Days ] Next
First Last

Start Time:     :
End Time:     :     
Time (in GMT) :00 :50 :40 :30 :20 :10
Previous Next [ Day | 3-Days | 7-Days ]
First Last
Prev [ Day | 3-Days | 7-Days ] Next
First Last


123 => good data
MM => data is determined as missing
-- => data not received/configured
Back to Top Back to Top
9/8/2020 00:00 to 23:10 77.26 77.05 77.58 73.72 73.46 74.69
9/7/2020 23:00 to 22:10 72.18 75.65 75.55 75.26 75.92 77.44
9/7/2020 22:00 to 21:10 76.43 76.56 75.10 74.75 77.11 76.78
9/7/2020 21:00 to 20:10 77.17 76.39 75.82 73.52 72.98 74.44
9/7/2020 20:00 to 19:10 73.01 71.65 70.52 69.91 69.68 69.23
9/7/2020 19:00 to 18:10 71.51 71.53 70.62 73.79 72.33 63.81
9/7/2020 18:00 to 17:10 72.84 72.35 65.55 58.90 66.93 72.18
9/7/2020 17:00 to 16:10 70.05 69.64 68.94 73.95 72.57 67.46
9/7/2020 16:00 to 15:10 73.62 79.41 81.57 82.24 78.49 81.40
9/7/2020 15:00 to 14:10 84.91 85.67 85.76 78.92 74.73 86.27
9/7/2020 14:00 to 13:10 85.55 84.38 81.63 84.19 84.15 84.01
9/7/2020 13:00 to 12:10 85.61 85.06 85.88 89.00 89.02 86.15
9/7/2020 12:00 to 11:10 83.80 84.07 83.46 84.26 82.65 83.17
9/7/2020 11:00 to 10:10 79.88 80.64 82.41 76.25 75.78 77.15
9/7/2020 10:00 to 9:10 77.30 77.21 74.98 75.55 79.41 78.18
9/7/2020 09:00 to 8:10 78.77 79.04 77.01 76.97 76.48 77.46
9/7/2020 08:00 to 7:10 76.52 76.13 76.80 75.67 75.82 75.00
9/7/2020 07:00 to 6:10 75.30 76.31 77.34 77.28 77.89 78.04
9/7/2020 06:00 to 5:10 76.82 75.69 76.23 75.41 76.11 76.21
9/7/2020 05:00 to 4:10 74.81 72.96 71.75 73.19 72.66 72.92
9/7/2020 04:00 to 3:10 71.73 77.11 77.11 74.05 73.91 74.77
9/7/2020 03:00 to 2:10 72.06 73.52 75.06 73.37 73.27 73.37
9/7/2020 02:00 to 1:10 73.66 74.03 75.30 74.44 75.08 74.30
9/7/2020 01:00 to 0:10 73.79 75.47 75.18 74.16 74.11 75.10
9/7/2020 00:00 to 23:10 75.55 73.29 73.46 73.85 75.06 75.80
9/6/2020 23:00 to 22:10 74.98 75.45 75.86 75.39 75.33 75.12
9/6/2020 22:00 to 21:10 74.85 75.63 75.59 76.33 76.93 78.69
9/6/2020 21:00 to 20:10 77.65 78.53 78.10 77.26 77.67 75.63
9/6/2020 20:00 to 19:10 76.62 80.11 82.86 86.02 83.99 84.61
9/6/2020 19:00 to 18:10 82.45 82.98 84.07 85.80 78.92 78.47
9/6/2020 18:00 to 17:10 77.89 79.04 80.29 79.29 79.53 80.68
9/6/2020 17:00 to 16:10 79.92 78.80 78.84 79.27 77.62 77.93
9/6/2020 16:00 to 15:10 77.97 78.36 78.69 77.23 77.62 77.65
9/6/2020 15:00 to 14:10 77.87 77.17 77.40 77.15 77.75 79.74
9/6/2020 14:00 to 13:10 77.03 77.03 76.93 83.17 83.74 80.91
9/6/2020 13:00 to 12:10 80.62 79.31 78.14 77.48 75.94 75.26
9/6/2020 12:00 to 11:10 75.33 80.05 78.92 78.41 77.87 75.65
9/6/2020 11:00 to 10:10 80.03 77.05 74.71 77.01 76.50 78.06
9/6/2020 10:00 to 9:10 77.71 76.93 77.32 76.13 78.71 78.49
9/6/2020 09:00 to 8:10 78.73 75.28 76.41 75.96 75.26 76.00
9/6/2020 08:00 to 7:10 77.99 78.28 79.92 81.09 82.82 82.98
9/6/2020 07:00 to 6:10 84.19 83.95 83.58 78.12 77.95 77.58
9/6/2020 06:00 to 5:10 76.97 76.43 75.92 76.89 76.89 73.40
9/6/2020 05:00 to 4:10 74.96 74.11 73.93 73.33 73.64 73.81
9/6/2020 04:00 to 3:10 71.18 70.54 72.27 72.90 74.91 72.66
9/6/2020 03:00 to 2:10 72.92 72.98 74.48 75.39 75.67 74.79
9/6/2020 02:00 to 1:10 76.52 76.66 79.31 81.81 82.20 84.87
9/6/2020 01:00 to 0:10 86.72 87.77 85.00 81.73 79.14 80.38
9/6/2020 00:00 to 23:10 76.78 76.74 76.50 75.51 76.31 76.43
9/5/2020 23:00 to 22:10 75.76 74.87 76.11 75.63 76.43 74.52
9/5/2020 22:00 to 21:10 74.75 75.33 76.15 75.24 75.51 74.55
9/5/2020 21:00 to 20:10 73.74 74.63 72.82 76.43 75.41 73.54
9/5/2020 20:00 to 19:10 74.65 75.53 73.81 73.74 71.32 73.91
9/5/2020 19:00 to 18:10 73.03 75.37 73.27 73.83 72.31 71.69
9/5/2020 18:00 to 17:10 74.98 73.95 74.91 72.37 73.93 72.04
9/5/2020 17:00 to 16:10 73.19 72.98 72.20 72.78 74.44 71.59
9/5/2020 16:00 to 15:10 73.70 73.33 73.35 75.30 73.05 72.84
9/5/2020 15:00 to 14:10 74.96 74.13 73.89 72.68 72.98 74.07
9/5/2020 14:00 to 13:10 76.17 76.02 74.48 74.05 73.72 74.69
9/5/2020 13:00 to 12:10 75.94 75.16 75.18 75.61 74.22 73.70
9/5/2020 12:00 to 11:10 74.20 72.18 71.77 73.31 71.34 73.74
9/5/2020 11:00 to 10:10 71.65 72.78 72.76 73.03 73.50 71.16
9/5/2020 10:00 to 9:10 71.14 71.59 70.07 70.46 71.36 72.45
9/5/2020 09:00 to 8:10 70.75 70.81 72.72 71.75 70.77 71.05
9/5/2020 08:00 to 7:10 72.02 71.10 70.89 70.69 70.34 68.71
9/5/2020 07:00 to 6:10 69.88 69.25 69.56 70.52 68.73 68.71
9/5/2020 06:00 to 5:10 69.27 69.39 68.84 68.61 69.31 69.84
9/5/2020 05:00 to 4:10 69.17 69.21 69.56 69.41 67.40 67.85
9/5/2020 04:00 to 3:10 65.82 65.68 67.07 66.99 66.13 66.81
9/5/2020 03:00 to 2:10 65.24 65.10 64.85 64.71 64.18 65.70
9/5/2020 02:00 to 1:10 65.55 67.03 68.73 67.42 69.15 68.57
9/5/2020 01:00 to 0:10 67.17 68.16 68.06 69.29 68.32 67.48
9/5/2020 00:00 to 23:10 67.93 66.72 67.61 67.30 67.81 68.55
9/4/2020 23:00 to 22:10 67.03 69.27 67.93 68.14 67.17 68.24
9/4/2020 22:00 to 21:10 69.52 68.76 68.28 68.28 68.16 67.83
9/4/2020 21:00 to 20:10 68.06 68.37 67.61 69.49 69.54 71.01
9/4/2020 20:00 to 19:10 69.93 70.73 69.99 70.64 69.23 70.13
9/4/2020 19:00 to 18:10 70.56 68.06 70.15 70.52 71.51 71.98
9/4/2020 18:00 to 17:10 70.62 70.46 71.57 70.15 71.49 72.31
9/4/2020 17:00 to 16:10 71.75 71.67 73.62 72.94 71.30 71.63
9/4/2020 16:00 to 15:10 72.31 72.98 72.14 73.93 71.22 73.58
9/4/2020 15:00 to 14:10 72.31 70.77 71.05 71.12 70.71 71.36
9/4/2020 14:00 to 13:10 72.55 72.27 72.49 73.33 73.11 72.51
9/4/2020 13:00 to 12:10 73.48 74.36 71.86 72.82 73.68 73.64
9/4/2020 12:00 to 11:10 74.36 73.64 73.42 73.89 73.23 74.03
9/4/2020 11:00 to 10:10 73.99 74.69 72.78 72.25 72.29 73.05
9/4/2020 10:00 to 9:10 72.70 74.34 77.56 84.11 83.72 83.11
9/4/2020 09:00 to 8:10 83.15 84.63 85.12 84.52 85.94 86.58
9/4/2020 08:00 to 7:10 87.38 86.97 88.01 87.42 86.43 84.03
9/4/2020 07:00 to 6:10 86.06 87.91 87.19 86.84 87.15 86.49
9/4/2020 06:00 to 5:10 82.08 88.38 88.96 88.47 87.44 86.45
9/4/2020 05:00 to 4:10 78.75 78.92 78.51 77.13 79.41 80.64
9/4/2020 04:00 to 3:10 80.77 79.64 79.12 79.37 79.60 77.50
9/4/2020 03:00 to 2:10 78.59 78.84 78.71 78.65 82.02 80.99
9/4/2020 02:00 to 1:10 79.45 80.05 79.82 79.06 81.87 82.18
9/4/2020 01:00 to 0:10 86.82 84.34 83.09 84.11 86.45 84.07
9/4/2020 00:00 to 23:10 82.94 82.12 82.86 82.02 83.07 86.39
9/3/2020 23:00 to 22:10 87.32 87.19 90.44 91.85 91.77 92.28
9/3/2020 22:00 to 21:10 91.75 90.85 88.90 90.44 87.85 88.88
9/3/2020 21:00 to 20:10 89.25 89.57 90.03 91.03 91.34 91.46
9/3/2020 20:00 to 19:10 91.77 91.91 91.89 91.57 91.26 91.18
9/3/2020 19:00 to 18:10 91.50 87.27 88.90 89.96 91.77 93.52
9/3/2020 18:00 to 17:10 93.39 93.89 94.09 92.02 90.76 88.65
9/3/2020 17:00 to 16:10 88.22 85.16 84.44 84.32 84.38 83.04
9/3/2020 16:00 to 15:10 82.43 83.19 83.13 85.98 85.90 82.22
9/3/2020 15:00 to 14:10 81.07 80.58 80.93 80.23 80.29 80.09
9/3/2020 14:00 to 13:10 80.62 80.91 82.65 83.17 80.33 80.64
9/3/2020 13:00 to 12:10 85.63 87.50 81.46 82.65 81.87 83.31
9/3/2020 12:00 to 11:10 84.15 83.37 83.50 84.13 84.52 85.16
9/3/2020 11:00 to 10:10 85.04 84.30 83.21 84.05 82.65 83.19
9/3/2020 10:00 to 9:10 83.95 83.54 82.45 81.20 83.74 85.84
9/3/2020 09:00 to 8:10 87.54 87.46 87.89 87.66 86.82 87.36
9/3/2020 08:00 to 7:10 87.75 87.77 85.92 78.34 78.08 77.99
9/3/2020 07:00 to 6:10 78.59 79.06 77.30 77.75 79.39 78.20
9/3/2020 06:00 to 5:10 77.48 77.85 78.36 78.04 78.30 79.19
9/3/2020 05:00 to 4:10 79.43 79.25 79.10 77.42 77.30 77.48
9/3/2020 04:00 to 3:10 77.77 76.89 79.21 79.27 79.82 80.56
9/3/2020 03:00 to 2:10 80.70 81.24 81.12 80.11 77.40 78.10
9/3/2020 02:00 to 1:10 78.82 77.60 77.56 78.47 78.80 80.33
9/3/2020 01:00 to 0:10 79.31 78.86 80.91 82.90 82.92 82.35
9/3/2020 00:00 to 23:10 83.21 86.10 86.10 83.83 84.50 84.75
9/2/2020 23:00 to 22:10 85.76 85.90 86.00 85.51 82.41 82.41
9/2/2020 22:00 to 21:10 83.76 85.71 85.49 84.58 86.58 87.95
9/2/2020 21:00 to 20:10 88.08 88.92 91.05 90.42 89.74 88.79
9/2/2020 20:00 to 19:10 88.42 87.62 89.06 90.56 90.25 88.92
9/2/2020 19:00 to 18:10 87.05 86.88 89.43 89.74 89.55 92.02
9/2/2020 18:00 to 17:10 91.11 90.79 90.62 89.29 84.71 77.62
9/2/2020 17:00 to 16:10 76.00 78.69 79.84 80.54 77.95 78.65
9/2/2020 16:00 to 15:10 77.81 79.08 81.69 81.16 80.50 78.67
9/2/2020 15:00 to 14:10 80.77 80.52 80.89 80.99 82.39 82.18
9/2/2020 14:00 to 13:10 81.73 81.65 81.81 82.24 82.31 81.65
9/2/2020 13:00 to 12:10 82.26 82.80 82.24 82.12 81.85 82.82
9/2/2020 12:00 to 11:10 82.84 83.31 83.93 82.45 82.37 83.23
9/2/2020 11:00 to 10:10 81.98 81.75 80.38 80.19 80.58 81.20
9/2/2020 10:00 to 9:10 81.12 80.29 80.33 80.66 79.60 79.88
9/2/2020 09:00 to 8:10 80.54 80.85 81.79 81.16 81.14 81.83
9/2/2020 08:00 to 7:10 82.39 82.33 81.94 81.85 82.43 82.16
9/2/2020 07:00 to 6:10 81.77 81.12 81.69 80.89 82.04 81.28
9/2/2020 06:00 to 5:10 81.12 80.62 80.23 80.15 78.67 79.68
9/2/2020 05:00 to 4:10 80.62 81.67 81.20 80.19 81.26 81.79
9/2/2020 04:00 to 3:10 81.75 81.51 81.73 81.77 82.14 82.31
9/2/2020 03:00 to 2:10 82.10 80.52 83.17 83.93 83.93 84.30
9/2/2020 02:00 to 1:10 83.41 83.00 83.56 83.29 84.36 85.00
9/2/2020 01:00 to 0:10 85.12 84.61 84.44 84.38 84.36 84.01
9/2/2020 00:00 to 23:10 83.70 84.11 84.01 83.41 82.49 81.69
9/1/2020 23:00 to 22:10 80.36 80.13 80.15 80.25 80.85 81.96
9/1/2020 22:00 to 21:10 82.18 83.15 82.84 82.94 82.94 84.36
9/1/2020 21:00 to 20:10 84.44 84.24 83.66 83.62 85.06 85.51
9/1/2020 20:00 to 19:10 85.36 85.98 87.81 88.92 90.05 91.52
9/1/2020 19:00 to 18:10 92.39 92.86 93.52 93.04 92.08 90.33
9/1/2020 18:00 to 17:10 88.57 88.75 88.22 85.14 86.54 85.80
9/1/2020 17:00 to 16:10 84.56 84.54 84.03 84.32 85.96 87.05
9/1/2020 16:00 to 15:10 87.15 87.38 86.10 83.39 84.07 83.58
9/1/2020 15:00 to 14:10 83.85 84.03 83.70 83.95 84.22 84.26
9/1/2020 14:00 to 13:10 83.78 83.62 83.99 84.07 84.09 83.54
9/1/2020 13:00 to 12:10 84.19 84.65 84.07 82.76 82.04 81.96
9/1/2020 12:00 to 11:10 82.96 82.53 83.00 83.33 83.33 83.02
9/1/2020 11:00 to 10:10 83.29 83.37 83.17 83.02 82.12 80.87
9/1/2020 10:00 to 9:10 79.53 81.03 81.42 80.89 80.01 79.45
9/1/2020 09:00 to 8:10 79.60 80.83 82.16 82.18 81.85 83.48
9/1/2020 08:00 to 7:10 85.63 87.36 87.48 87.48 87.48 86.78
9/1/2020 07:00 to 6:10 87.71 86.35 83.74 83.93 83.29 83.54
9/1/2020 06:00 to 5:10 82.51 82.45 82.88 82.53 83.52 84.24
9/1/2020 05:00 to 4:10 84.67 85.08 84.40 83.25 81.73 80.68
9/1/2020 04:00 to 3:10 79.92 79.12 78.20 78.59 79.02 79.25
9/1/2020 03:00 to 2:10 79.92 81.94 83.72 84.69 85.47 86.17
9/1/2020 02:00 to 1:10 85.34 85.18 86.04 87.17 87.40 87.75
9/1/2020 01:00 to 0:10 88.40 91.15 92.18 91.61 91.18 91.09